sensor_id;sensor_type;location;lat;lon;timestamp;pressure;altitude;pressure_sealevel;temperature;humidity
39105;BME280;46464;51.154;13.812;2023-04-23T00:02:14;51990.47;;;-146.96;54.78
39105;BME280;46464;51.154;13.812;2023-04-23T00:04:48;51990.47;;;-146.96;54.87
39105;BME280;46464;51.154;13.812;2023-04-23T00:07:18;51998.63;;;-146.96;54.83
39105;BME280;46464;51.154;13.812;2023-04-23T00:09:44;51980.31;;;-146.96;54.58
39105;BME280;46464;51.154;13.812;2023-04-23T00:12:11;51972.16;;;-146.96;54.97
39105;BME280;46464;51.154;13.812;2023-04-23T00:14:38;52010.81;;;-146.96;54.43
39105;BME280;46464;51.154;13.812;2023-04-23T00:17:05;51992.50;;;-146.96;54.66
39105;BME280;46464;51.154;13.812;2023-04-23T00:19:32;51988.44;;;-146.96;55.08
39105;BME280;46464;51.154;13.812;2023-04-23T00:21:59;51964.03;;;-146.96;55.04
39105;BME280;46464;51.154;13.812;2023-04-23T00:24:25;52000.66;;;-146.96;55.02
39105;BME280;46464;51.154;13.812;2023-04-23T00:26:52;51980.31;;;-146.96;55.07
39105;BME280;46464;51.154;13.812;2023-04-23T00:29:18;51984.38;;;-146.96;55.12
39105;BME280;46464;51.154;13.812;2023-04-23T00:31:45;51988.44;;;-146.96;55.42
39105;BME280;46464;51.154;13.812;2023-04-23T00:34:12;51976.22;;;-146.96;55.29
39105;BME280;46464;51.154;13.812;2023-04-23T00:36:38;51988.44;;;-146.96;55.32
39105;BME280;46464;51.154;13.812;2023-04-23T00:39:05;51972.16;;;-146.96;55.33
39105;BME280;46464;51.154;13.812;2023-04-23T00:41:32;51992.50;;;-146.96;55.24
39105;BME280;46464;51.154;13.812;2023-04-23T00:43:59;51976.22;;;-146.96;55.18
39105;BME280;46464;51.154;13.812;2023-04-23T00:46:25;51966.06;;;-146.96;55.23
39105;BME280;46464;51.154;13.812;2023-04-23T00:48:53;51996.59;;;-146.96;55.12
39105;BME280;46464;51.154;13.812;2023-04-23T00:51:21;52008.78;;;-146.96;55.32
39105;BME280;46464;51.154;13.812;2023-04-23T00:53:49;51957.91;;;-146.96;55.33
39105;BME280;46464;51.154;13.812;2023-04-23T00:56:15;51964.03;;;-146.96;55.11
39105;BME280;46464;51.154;13.812;2023-04-23T00:58:43;51992.50;;;-146.96;55.11
39105;BME280;46464;51.154;13.812;2023-04-23T01:01:10;52006.75;;;-146.96;55.01
39105;BME280;46464;51.154;13.812;2023-04-23T01:03:37;51992.50;;;-146.96;55.15
39105;BME280;46464;51.154;13.812;2023-04-23T01:06:07;51994.53;;;-146.96;55.05
39105;BME280;46464;51.154;13.812;2023-04-23T01:08:34;51982.34;;;-146.96;55.15
39105;BME280;46464;51.154;13.812;2023-04-23T01:11:02;52014.88;;;-146.96;55.00
39105;BME280;46464;51.154;13.812;2023-04-23T01:13:28;51992.50;;;-146.96;55.23
39105;BME280;46464;51.154;13.812;2023-04-23T01:15:55;51972.16;;;-146.96;55.44
39105;BME280;46464;51.154;13.812;2023-04-23T01:18:22;51990.47;;;-146.96;55.45
39105;BME280;46464;51.154;13.812;2023-04-23T01:20:50;51982.34;;;-146.96;55.42
39105;BME280;46464;51.154;13.812;2023-04-23T01:23:16;51972.16;;;-146.96;55.77
39105;BME280;46464;51.154;13.812;2023-04-23T01:25:43;52006.75;;;-146.96;56.00
39105;BME280;46464;51.154;13.812;2023-04-23T01:28:09;51994.53;;;-146.96;56.10
39105;BME280;46464;51.154;13.812;2023-04-23T01:30:37;51986.41;;;-146.96;56.65
39105;BME280;46464;51.154;13.812;2023-04-23T01:33:04;52004.72;;;-146.96;57.07
39105;BME280;46464;51.154;13.812;2023-04-23T01:35:32;51980.31;;;-146.96;57.38
39105;BME280;46464;51.154;13.812;2023-04-23T01:37:59;51988.44;;;-146.96;57.83
39105;BME280;46464;51.154;13.812;2023-04-23T01:40:28;52037.28;;;-146.96;57.71
39105;BME280;46464;51.154;13.812;2023-04-23T01:42:55;52002.69;;;-146.96;58.13
39105;BME280;46464;51.154;13.812;2023-04-23T01:45:22;52037.28;;;-146.96;58.03
39105;BME280;46464;51.154;13.812;2023-04-23T01:47:49;52027.09;;;-146.96;58.41
39105;BME280;46464;51.154;13.812;2023-04-23T01:50:15;52041.34;;;-146.96;58.27
39105;BME280;46464;51.154;13.812;2023-04-23T01:52:42;52041.34;;;-146.96;58.95
39105;BME280;46464;51.154;13.812;2023-04-23T01:55:10;52012.84;;;-146.96;59.02
39105;BME280;46464;51.154;13.812;2023-04-23T01:57:36;52055.59;;;-146.96;59.26
39105;BME280;46464;51.154;13.812;2023-04-23T02:00:08;52016.94;;;-146.96;59.46
39105;BME280;46464;51.154;13.812;2023-04-23T02:02:37;52021.00;;;-146.96;59.61
39105;BME280;46464;51.154;13.812;2023-04-23T02:05:14;52031.16;;;-146.96;59.61
39105;BME280;46464;51.154;13.812;2023-04-23T02:07:42;52025.06;;;-146.96;59.90
39105;BME280;46464;51.154;13.812;2023-04-23T02:10:09;52043.38;;;-146.96;60.18
39105;BME280;46464;51.154;13.812;2023-04-23T02:12:37;52055.59;;;-146.96;60.60
39105;BME280;46464;51.154;13.812;2023-04-23T02:15:04;52055.59;;;-146.96;60.74
39105;BME280;46464;51.154;13.812;2023-04-23T02:17:31;52065.75;;;-146.96;61.25
39105;BME280;46464;51.154;13.812;2023-04-23T02:19:58;52043.38;;;-146.96;61.20
39105;BME280;46464;51.154;13.812;2023-04-23T02:22:25;52045.41;;;-146.96;61.60
39105;BME280;46464;51.154;13.812;2023-04-23T02:24:53;52053.53;;;-146.96;61.90
39105;BME280;46464;51.154;13.812;2023-04-23T02:27:20;52051.50;;;-146.96;61.99
39105;BME280;46464;51.154;13.812;2023-04-23T02:29:47;52071.84;;;-146.96;61.95
39105;BME280;46464;51.154;13.812;2023-04-23T02:32:14;52077.97;;;-146.96;62.51
39105;BME280;46464;51.154;13.812;2023-04-23T02:34:41;52057.63;;;-146.96;62.56
39105;BME280;46464;51.154;13.812;2023-04-23T02:37:07;52037.28;;;-146.96;62.98
39105;BME280;46464;51.154;13.812;2023-04-23T02:39:34;52088.13;;;-146.96;63.06
39105;BME280;46464;51.154;13.812;2023-04-23T02:42:00;52018.97;;;-146.96;63.55
39105;BME280;46464;51.154;13.812;2023-04-23T02:44:27;52037.28;;;-146.96;63.32
39105;BME280;46464;51.154;13.812;2023-04-23T02:46:53;52051.50;;;-146.96;63.36
39105;BME280;46464;51.154;13.812;2023-04-23T02:49:20;52051.50;;;-146.96;63.68
39105;BME280;46464;51.154;13.812;2023-04-23T02:51:46;52055.59;;;-146.96;63.95
39105;BME280;46464;51.154;13.812;2023-04-23T02:54:13;52106.44;;;-146.96;63.94
39105;BME280;46464;51.154;13.812;2023-04-23T02:56:40;52057.63;;;-146.96;63.74
39105;BME280;46464;51.154;13.812;2023-04-23T02:59:07;52053.53;;;-146.96;63.21
39105;BME280;46464;51.154;13.812;2023-04-23T03:01:34;52051.50;;;-146.96;62.99
39105;BME280;46464;51.154;13.812;2023-04-23T03:04:01;52063.72;;;-146.96;62.91
39105;BME280;46464;51.154;13.812;2023-04-23T03:06:29;52057.63;;;-146.96;63.18
39105;BME280;46464;51.154;13.812;2023-04-23T03:08:57;52061.69;;;-146.96;63.16
39105;BME280;46464;51.154;13.812;2023-04-23T03:11:23;52092.22;;;-146.96;63.07
39105;BME280;46464;51.154;13.812;2023-04-23T03:13:49;52051.50;;;-146.96;63.14
39105;BME280;46464;51.154;13.812;2023-04-23T03:16:16;52090.16;;;-146.96;63.05
39105;BME280;46464;51.154;13.812;2023-04-23T03:18:43;52067.78;;;-146.96;63.16
39105;BME280;46464;51.154;13.812;2023-04-23T03:21:09;52077.97;;;-146.96;63.38
39105;BME280;46464;51.154;13.812;2023-04-23T03:23:36;52065.75;;;-146.96;63.38
39105;BME280;46464;51.154;13.812;2023-04-23T03:26:02;52102.38;;;-146.96;63.49
39105;BME280;46464;51.154;13.812;2023-04-23T03:28:30;52063.72;;;-146.96;63.71
39105;BME280;46464;51.154;13.812;2023-04-23T03:30:56;52059.66;;;-146.96;63.88
39105;BME280;46464;51.154;13.812;2023-04-23T03:33:23;52082.03;;;-146.96;64.11
39105;BME280;46464;51.154;13.812;2023-04-23T03:35:49;52075.94;;;-146.96;64.36
39105;BME280;46464;51.154;13.812;2023-04-23T03:38:16;52090.16;;;-146.96;64.41
39105;BME280;46464;51.154;13.812;2023-04-23T03:40:42;52043.38;;;-146.96;64.30
39105;BME280;46464;51.154;13.812;2023-04-23T03:43:08;52061.69;;;-146.96;64.59
39105;BME280;46464;51.154;13.812;2023-04-23T03:45:35;52061.69;;;-146.96;64.61
39105;BME280;46464;51.154;13.812;2023-04-23T03:48:01;52100.34;;;-146.96;64.82
39105;BME280;46464;51.154;13.812;2023-04-23T03:50:28;52059.66;;;-146.96;64.95
39105;BME280;46464;51.154;13.812;2023-04-23T03:52:55;52065.75;;;-146.96;65.14
39105;BME280;46464;51.154;13.812;2023-04-23T03:55:21;52055.59;;;-146.96;65.00
39105;BME280;46464;51.154;13.812;2023-04-23T03:57:48;52086.09;;;-146.96;65.14
39105;BME280;46464;51.154;13.812;2023-04-23T04:00:14;52029.13;;;-146.96;65.28
39105;BME280;46464;51.154;13.812;2023-04-23T04:02:41;52067.78;;;-146.96;65.42
39105;BME280;46464;51.154;13.812;2023-04-23T04:05:08;52023.03;;;-146.96;65.28
39105;BME280;46464;51.154;13.812;2023-04-23T04:07:37;52075.94;;;-146.96;65.84
39105;BME280;46464;51.154;13.812;2023-04-23T04:10:04;52061.69;;;-146.96;65.34
39105;BME280;46464;51.154;13.812;2023-04-23T04:12:31;52047.44;;;-146.96;65.53
39105;BME280;46464;51.154;13.812;2023-04-23T04:14:58;52055.59;;;-146.96;65.61
39105;BME280;46464;51.154;13.812;2023-04-23T04:17:25;52055.59;;;-146.96;65.60
39105;BME280;46464;51.154;13.812;2023-04-23T04:19:51;52039.31;;;-146.96;65.56
39105;BME280;46464;51.154;13.812;2023-04-23T04:22:18;52039.31;;;-146.96;65.37
39105;BME280;46464;51.154;13.812;2023-04-23T04:24:44;52067.78;;;-146.96;65.45
39105;BME280;46464;51.154;13.812;2023-04-23T04:27:13;52039.31;;;-146.96;65.36
39105;BME280;46464;51.154;13.812;2023-04-23T04:29:40;52082.03;;;-146.96;65.27
39105;BME280;46464;51.154;13.812;2023-04-23T04:32:07;52053.53;;;-146.96;65.07
39105;BME280;46464;51.154;13.812;2023-04-23T04:34:34;52057.63;;;-146.96;65.11
39105;BME280;46464;51.154;13.812;2023-04-23T04:37:03;52037.28;;;-146.96;65.06
39105;BME280;46464;51.154;13.812;2023-04-23T04:39:30;52055.59;;;-146.96;64.88
39105;BME280;46464;51.154;13.812;2023-04-23T04:41:56;52043.38;;;-146.96;65.05
39105;BME280;46464;51.154;13.812;2023-04-23T04:44:25;52041.34;;;-146.96;65.00
39105;BME280;46464;51.154;13.812;2023-04-23T04:46:51;52059.66;;;-146.96;65.37
39105;BME280;46464;51.154;13.812;2023-04-23T04:49:19;52027.09;;;-146.96;65.65
39105;BME280;46464;51.154;13.812;2023-04-23T04:51:47;52049.47;;;-146.96;65.89
39105;BME280;46464;51.154;13.812;2023-04-23T04:54:13;52053.53;;;-146.96;66.24
39105;BME280;46464;51.154;13.812;2023-04-23T04:56:40;52008.78;;;-146.96;66.18
39105;BME280;46464;51.154;13.812;2023-04-23T04:59:06;52033.19;;;-146.96;66.42
39105;BME280;46464;51.154;13.812;2023-04-23T05:01:33;52029.13;;;-146.96;66.46
39105;BME280;46464;51.154;13.812;2023-04-23T05:03:59;52045.41;;;-146.96;66.45
39105;BME280;46464;51.154;13.812;2023-04-23T05:06:26;52016.94;;;-146.96;66.23
39105;BME280;46464;51.154;13.812;2023-04-23T05:08:54;52045.41;;;-146.96;65.90
39105;BME280;46464;51.154;13.812;2023-04-23T05:11:20;51998.63;;;-146.96;66.03
39105;BME280;46464;51.154;13.812;2023-04-23T05:13:47;52004.72;;;-146.96;65.77
39105;BME280;46464;51.154;13.812;2023-04-23T05:16:14;52004.72;;;-146.96;66.69
39105;BME280;46464;51.154;13.812;2023-04-23T05:18:41;52002.69;;;-146.96;66.17
39105;BME280;46464;51.154;13.812;2023-04-23T05:21:08;51998.63;;;-146.96;65.45
39105;BME280;46464;51.154;13.812;2023-04-23T05:23:35;52000.66;;;-146.96;65.32
39105;BME280;46464;51.154;13.812;2023-04-23T05:26:02;51957.91;;;-146.96;63.59
39105;BME280;46464;51.154;13.812;2023-04-23T05:28:29;51962.00;;;-146.96;61.36
39105;BME280;46464;51.154;13.812;2023-04-23T05:30:56;51925.38;;;-146.96;61.03
39105;BME280;46464;51.154;13.812;2023-04-23T05:33:23;51917.22;;;-146.96;60.84
39105;BME280;46464;51.154;13.812;2023-04-23T05:35:58;51921.31;;;-146.96;60.12
39105;BME280;46464;51.154;13.812;2023-04-23T05:38:25;51927.41;;;-146.96;60.08
39105;BME280;46464;51.154;13.812;2023-04-23T05:40:51;51905.03;;;-146.96;59.88
39105;BME280;46464;51.154;13.812;2023-04-23T05:43:18;51937.56;;;-146.96;60.22
39105;BME280;46464;51.154;13.812;2023-04-23T05:45:44;51931.47;;;-146.96;60.43
39105;BME280;46464;51.154;13.812;2023-04-23T05:48:11;51903.00;;;-146.96;59.78
39105;BME280;46464;51.154;13.812;2023-04-23T05:50:37;51876.53;;;-146.96;60.01
39105;BME280;46464;51.154;13.812;2023-04-23T05:53:04;51890.78;;;-146.96;59.22
39105;BME280;46464;51.154;13.812;2023-04-23T05:55:30;51923.34;;;-146.96;58.62
39105;BME280;46464;51.154;13.812;2023-04-23T05:57:57;51900.97;;;-146.96;59.20
39105;BME280;46464;51.154;13.812;2023-04-23T06:00:23;51862.31;;;-146.96;59.21
39105;BME280;46464;51.154;13.812;2023-04-23T06:02:50;51913.16;;;-146.96;59.36
39105;BME280;46464;51.154;13.812;2023-04-23T06:05:17;51852.13;;;-146.96;58.95
39105;BME280;46464;51.154;13.812;2023-04-23T06:07:44;51900.97;;;-146.96;58.48
39105;BME280;46464;51.154;13.812;2023-04-23T06:10:11;51878.56;;;-146.96;58.02
39105;BME280;46464;51.154;13.812;2023-04-23T06:12:38;51809.41;;;-146.96;56.39
39105;BME280;46464;51.154;13.812;2023-04-23T06:15:08;51782.97;;;-146.96;53.95
39105;BME280;46464;51.154;13.812;2023-04-23T06:17:35;51785.00;;;-146.96;49.73
39105;BME280;46464;51.154;13.812;2023-04-23T06:20:02;51748.38;;;-146.96;51.33
39105;BME280;46464;51.154;13.812;2023-04-23T06:22:30;51721.94;;;-146.96;50.89
39105;BME280;46464;51.154;13.812;2023-04-23T06:24:57;51717.84;;;-146.96;49.74
39105;BME280;46464;51.154;13.812;2023-04-23T06:27:24;51717.84;;;-146.96;47.28
39105;BME280;46464;51.154;13.812;2023-04-23T06:32:27;51791.09;;;-146.96;49.83
39105;BME280;46464;51.154;13.812;2023-04-23T06:34:54;51795.16;;;-146.96;50.92
39105;BME280;46464;51.154;13.812;2023-04-23T06:37:27;51801.25;;;-146.96;51.88
39105;BME280;46464;51.154;13.812;2023-04-23T06:39:57;51866.38;;;-146.96;52.40
39105;BME280;46464;51.154;13.812;2023-04-23T06:42:23;51815.50;;;-146.96;54.56
39105;BME280;46464;51.154;13.812;2023-04-23T06:44:50;51819.56;;;-146.96;54.70
39105;BME280;46464;51.154;13.812;2023-04-23T06:47:17;51825.69;;;-146.96;55.04
39105;BME280;46464;51.154;13.812;2023-04-23T06:49:44;51866.38;;;-146.96;54.80
39105;BME280;46464;51.154;13.812;2023-04-23T06:52:11;51809.41;;;-146.96;55.26
39105;BME280;46464;51.154;13.812;2023-04-23T06:54:37;51835.84;;;-146.96;55.25
39105;BME280;46464;51.154;13.812;2023-04-23T06:57:04;51793.13;;;-146.96;56.23
39105;BME280;46464;51.154;13.812;2023-04-23T06:59:31;51872.47;;;-146.96;56.11
39105;BME280;46464;51.154;13.812;2023-04-23T07:01:57;51852.13;;;-146.96;56.32
39105;BME280;46464;51.154;13.812;2023-04-23T07:04:24;51856.19;;;-146.96;56.03
39105;BME280;46464;51.154;13.812;2023-04-23T07:06:50;51858.22;;;-146.96;56.24
39105;BME280;46464;51.154;13.812;2023-04-23T07:09:17;51880.63;;;-146.96;56.55
39105;BME280;46464;51.154;13.812;2023-04-23T07:11:43;51841.97;;;-146.96;57.25
39105;BME280;46464;51.154;13.812;2023-04-23T07:14:10;51884.69;;;-146.96;57.04
39105;BME280;46464;51.154;13.812;2023-04-23T07:16:37;51841.97;;;-146.96;56.04
39105;BME280;46464;51.154;13.812;2023-04-23T07:19:03;51870.44;;;-146.96;56.08
39105;BME280;46464;51.154;13.812;2023-04-23T07:21:30;51854.16;;;-146.96;56.93
39105;BME280;46464;51.154;13.812;2023-04-23T07:23:58;51854.16;;;-146.96;56.37
39105;BME280;46464;51.154;13.812;2023-04-23T07:26:33;51850.09;;;-146.96;56.78
39105;BME280;46464;51.154;13.812;2023-04-23T07:28:59;51825.69;;;-146.96;56.49
39105;BME280;46464;51.154;13.812;2023-04-23T07:31:26;51894.84;;;-146.96;56.54
39105;BME280;46464;51.154;13.812;2023-04-23T07:33:54;51850.09;;;-146.96;56.59
39105;BME280;46464;51.154;13.812;2023-04-23T07:36:21;51856.19;;;-146.96;56.36
39105;BME280;46464;51.154;13.812;2023-04-23T07:38:48;51856.19;;;-146.96;57.33
39105;BME280;46464;51.154;13.812;2023-04-23T07:41:16;51872.47;;;-146.96;57.61
39105;BME280;46464;51.154;13.812;2023-04-23T07:43:43;51876.53;;;-146.96;57.44
39105;BME280;46464;51.154;13.812;2023-04-23T07:46:09;51852.13;;;-146.96;57.21
39105;BME280;46464;51.154;13.812;2023-04-23T07:48:36;51874.50;;;-146.96;57.83
39105;BME280;46464;51.154;13.812;2023-04-23T07:51:02;51872.47;;;-146.96;57.90
39105;BME280;46464;51.154;13.812;2023-04-23T07:53:29;51868.41;;;-146.96;57.72
39105;BME280;46464;51.154;13.812;2023-04-23T07:55:56;51882.66;;;-146.96;58.31
39105;BME280;46464;51.154;13.812;2023-04-23T07:58:23;51846.03;;;-146.96;58.55
39105;BME280;46464;51.154;13.812;2023-04-23T08:00:50;51876.53;;;-146.96;58.15
39105;BME280;46464;51.154;13.812;2023-04-23T08:03:16;51894.84;;;-146.96;57.68
39105;BME280;46464;51.154;13.812;2023-04-23T08:05:43;51900.97;;;-146.96;57.94
39105;BME280;46464;51.154;13.812;2023-04-23T08:08:11;51864.34;;;-146.96;58.82
39105;BME280;46464;51.154;13.812;2023-04-23T08:10:39;51866.38;;;-146.96;58.79
39105;BME280;46464;51.154;13.812;2023-04-23T08:13:05;51850.09;;;-146.96;58.77
39105;BME280;46464;51.154;13.812;2023-04-23T08:15:32;51907.06;;;-146.96;59.00
39105;BME280;46464;51.154;13.812;2023-04-23T08:17:58;51886.72;;;-146.96;59.56
39105;BME280;46464;51.154;13.812;2023-04-23T08:20:35;51854.16;;;-146.96;58.78
39105;BME280;46464;51.154;13.812;2023-04-23T08:23:02;51801.25;;;-146.96;59.54
39105;BME280;46464;51.154;13.812;2023-04-23T08:25:29;51821.63;;;-146.96;58.40
39105;BME280;46464;51.154;13.812;2023-04-23T08:27:55;51815.50;;;-146.96;57.89
39105;BME280;46464;51.154;13.812;2023-04-23T08:30:22;51815.50;;;-146.96;56.76
39105;BME280;46464;51.154;13.812;2023-04-23T08:32:50;51833.81;;;-146.96;56.89
39105;BME280;46464;51.154;13.812;2023-04-23T08:35:19;51785.00;;;-146.96;57.67
39105;BME280;46464;51.154;13.812;2023-04-23T08:37:45;51817.53;;;-146.96;56.28
39105;BME280;46464;51.154;13.812;2023-04-23T08:40:12;51805.34;;;-146.96;56.62
39105;BME280;46464;51.154;13.812;2023-04-23T08:42:42;51801.25;;;-146.96;56.04
39105;BME280;46464;51.154;13.812;2023-04-23T08:45:11;51829.75;;;-146.96;56.06
39105;BME280;46464;51.154;13.812;2023-04-23T08:47:41;51803.31;;;-146.96;56.60
39105;BME280;46464;51.154;13.812;2023-04-23T08:50:15;51803.31;;;-146.96;57.52
39105;BME280;46464;51.154;13.812;2023-04-23T08:52:48;51805.34;;;-146.96;56.59
39105;BME280;46464;51.154;13.812;2023-04-23T08:55:15;51815.50;;;-146.96;56.72
39105;BME280;46464;51.154;13.812;2023-04-23T08:57:44;51748.38;;;-146.96;56.23
39105;BME280;46464;51.154;13.812;2023-04-23T09:00:13;51744.31;;;-146.96;54.94
39105;BME280;46464;51.154;13.812;2023-04-23T09:02:44;51785.00;;;-146.96;53.38
39105;BME280;46464;51.154;13.812;2023-04-23T09:05:12;51785.00;;;-146.96;54.50
39105;BME280;46464;51.154;13.812;2023-04-23T09:07:39;51774.81;;;-146.96;54.67
39105;BME280;46464;51.154;13.812;2023-04-23T09:10:08;51852.13;;;-146.96;54.53
39105;BME280;46464;51.154;13.812;2023-04-23T09:12:38;51809.41;;;-146.96;56.00
39105;BME280;46464;51.154;13.812;2023-04-23T09:15:06;51811.44;;;-146.96;56.03
39105;BME280;46464;51.154;13.812;2023-04-23T09:17:42;51846.03;;;-146.96;56.69
39105;BME280;46464;51.154;13.812;2023-04-23T09:20:10;51803.31;;;-146.96;56.81
39105;BME280;46464;51.154;13.812;2023-04-23T09:22:48;51844.00;;;-146.96;57.61
39105;BME280;46464;51.154;13.812;2023-04-23T09:25:19;51807.38;;;-146.96;58.34
39105;BME280;46464;51.154;13.812;2023-04-23T09:27:57;51864.34;;;-146.96;58.48
39105;BME280;46464;51.154;13.812;2023-04-23T09:30:24;51835.84;;;-146.96;58.37
39105;BME280;46464;51.154;13.812;2023-04-23T09:32:52;51829.75;;;-146.96;59.30
39105;BME280;46464;51.154;13.812;2023-04-23T09:35:20;51809.41;;;-146.96;58.48
39105;BME280;46464;51.154;13.812;2023-04-23T09:37:48;51807.38;;;-146.96;58.32
39105;BME280;46464;51.154;13.812;2023-04-23T09:40:19;51825.69;;;-146.96;58.31
39105;BME280;46464;51.154;13.812;2023-04-23T09:42:49;51829.75;;;-146.96;57.04
39105;BME280;46464;51.154;13.812;2023-04-23T09:45:19;51852.13;;;-146.96;57.87
39105;BME280;46464;51.154;13.812;2023-04-23T10:31:09;51817.53;;;-146.96;56.66
39105;BME280;46464;51.154;13.812;2023-04-23T10:33:36;51801.25;;;-146.96;55.74
39105;BME280;46464;51.154;13.812;2023-04-23T10:36:22;51833.81;;;-146.96;55.51
39105;BME280;46464;51.154;13.812;2023-04-23T10:38:51;51841.97;;;-146.96;55.08
39105;BME280;46464;51.154;13.812;2023-04-23T10:41:32;51809.41;;;-146.96;54.68
39105;BME280;46464;51.154;13.812;2023-04-23T10:44:01;51791.09;;;-146.96;55.19
39105;BME280;46464;51.154;13.812;2023-04-23T10:46:30;51791.09;;;-146.96;53.79
39105;BME280;46464;51.154;13.812;2023-04-23T10:49:10;51837.88;;;-146.96;54.13
39105;BME280;46464;51.154;13.812;2023-04-23T10:51:40;51835.84;;;-146.96;54.28
39105;BME280;46464;51.154;13.812;2023-04-23T10:54:18;51819.56;;;-146.96;54.95
39105;BME280;46464;51.154;13.812;2023-04-23T10:56:57;51809.41;;;-146.96;53.89
39105;BME280;46464;51.154;13.812;2023-04-23T10:59:24;51803.31;;;-146.96;53.76
39105;BME280;46464;51.154;13.812;2023-04-23T11:01:50;51805.34;;;-146.96;54.41
39105;BME280;46464;51.154;13.812;2023-04-23T11:04:25;51799.22;;;-146.96;53.51
39105;BME280;46464;51.154;13.812;2023-04-23T11:07:04;51807.38;;;-146.96;53.88
39105;BME280;46464;51.154;13.812;2023-04-23T11:09:46;51785.00;;;-146.96;54.16
39105;BME280;46464;51.154;13.812;2023-04-23T11:12:31;51776.84;;;-146.96;55.62
39105;BME280;46464;51.154;13.812;2023-04-23T11:15:09;51807.38;;;-146.96;57.27
39105;BME280;46464;51.154;13.812;2023-04-23T11:22:36;51813.47;;;-146.96;58.66
39105;BME280;46464;51.154;13.812;2023-04-23T11:27:44;51841.97;;;-146.96;59.74
39105;BME280;46464;51.154;13.812;2023-04-23T11:30:13;51817.53;;;-146.96;60.41
39105;BME280;46464;51.154;13.812;2023-04-23T11:32:40;51827.72;;;-146.96;60.11
39105;BME280;46464;51.154;13.812;2023-04-23T11:35:08;51844.00;;;-146.96;58.97
39105;BME280;46464;51.154;13.812;2023-04-23T11:37:39;51833.81;;;-146.96;60.84
39105;BME280;46464;51.154;13.812;2023-04-23T11:40:11;51837.88;;;-146.96;60.20
39105;BME280;46464;51.154;13.812;2023-04-23T11:42:43;51839.91;;;-146.96;60.49
39105;BME280;46464;51.154;13.812;2023-04-23T11:47:43;51837.88;;;-146.96;59.92
39105;BME280;46464;51.154;13.812;2023-04-23T11:50:18;51841.97;;;-146.96;60.52
39105;BME280;46464;51.154;13.812;2023-04-23T11:52:45;51841.97;;;-146.96;59.35
39105;BME280;46464;51.154;13.812;2023-04-23T11:55:11;51801.25;;;-146.96;59.16
39105;BME280;46464;51.154;13.812;2023-04-23T11:57:49;51833.81;;;-146.96;58.96
39105;BME280;46464;51.154;13.812;2023-04-23T12:00:19;51809.41;;;-146.96;57.88
39105;BME280;46464;51.154;13.812;2023-04-23T12:02:56;51793.13;;;-146.96;57.19
39105;BME280;46464;51.154;13.812;2023-04-23T12:05:28;51817.53;;;-146.96;57.99
39105;BME280;46464;51.154;13.812;2023-04-23T12:08:23;51815.50;;;-146.96;56.59
39105;BME280;46464;51.154;13.812;2023-04-23T12:10:51;51850.09;;;-146.96;58.32
39105;BME280;46464;51.154;13.812;2023-04-23T12:13:27;51825.69;;;-146.96;57.60
39105;BME280;46464;51.154;13.812;2023-04-23T12:16:00;51831.78;;;-146.96;57.43
39105;BME280;46464;51.154;13.812;2023-04-23T12:18:27;51811.44;;;-146.96;57.48
39105;BME280;46464;51.154;13.812;2023-04-23T12:20:54;51837.88;;;-146.96;56.79
39105;BME280;46464;51.154;13.812;2023-04-23T12:23:27;51829.75;;;-146.96;57.70
39105;BME280;46464;51.154;13.812;2023-04-23T12:25:54;51825.69;;;-146.96;57.49
39105;BME280;46464;51.154;13.812;2023-04-23T12:28:22;51833.81;;;-146.96;58.04
39105;BME280;46464;51.154;13.812;2023-04-23T12:30:50;51833.81;;;-146.96;57.71
39105;BME280;46464;51.154;13.812;2023-04-23T12:33:17;51846.03;;;-146.96;58.66
39105;BME280;46464;51.154;13.812;2023-04-23T12:35:49;51888.75;;;-146.96;58.48
39105;BME280;46464;51.154;13.812;2023-04-23T12:38:25;51835.84;;;-146.96;59.27
39105;BME280;46464;51.154;13.812;2023-04-23T12:40:54;51868.41;;;-146.96;60.12
39105;BME280;46464;51.154;13.812;2023-04-23T12:43:21;51823.66;;;-146.96;57.30
39105;BME280;46464;51.154;13.812;2023-04-23T12:45:48;51825.69;;;-146.96;57.81
39105;BME280;46464;51.154;13.812;2023-04-23T12:48:14;51780.91;;;-146.96;57.82
39105;BME280;46464;51.154;13.812;2023-04-23T12:50:41;51801.25;;;-146.96;57.41
39105;BME280;46464;51.154;13.812;2023-04-23T12:53:07;51807.38;;;-146.96;57.21
39105;BME280;46464;51.154;13.812;2023-04-23T12:55:36;51791.09;;;-146.96;56.06
39105;BME280;46464;51.154;13.812;2023-04-23T12:58:05;51809.41;;;-146.96;55.55
39105;BME280;46464;51.154;13.812;2023-04-23T13:00:32;51805.34;;;-146.96;56.03
39105;BME280;46464;51.154;13.812;2023-04-23T13:02:58;51807.38;;;-146.96;56.79
39105;BME280;46464;51.154;13.812;2023-04-23T13:05:25;51752.44;;;-146.96;55.39
39105;BME280;46464;51.154;13.812;2023-04-23T13:07:52;51785.00;;;-146.96;54.39
39105;BME280;46464;51.154;13.812;2023-04-23T13:10:18;51768.72;;;-146.96;54.92
39105;BME280;46464;51.154;13.812;2023-04-23T13:12:45;51762.63;;;-146.96;54.06
39105;BME280;46464;51.154;13.812;2023-04-23T13:15:11;51721.94;;;-146.96;53.32
39105;BME280;46464;51.154;13.812;2023-04-23T13:17:40;51723.97;;;-146.96;52.66
39105;BME280;46464;51.154;13.812;2023-04-23T13:20:08;51760.56;;;-146.96;52.91
39105;BME280;46464;51.154;13.812;2023-04-23T13:22:35;51776.84;;;-146.96;49.82
39105;BME280;46464;51.154;13.812;2023-04-23T13:25:01;51797.19;;;-146.96;50.44
39105;BME280;46464;51.154;13.812;2023-04-23T13:27:30;51782.97;;;-146.96;51.85
39105;BME280;46464;51.154;13.812;2023-04-23T13:30:00;51764.66;;;-146.96;52.93
39105;BME280;46464;51.154;13.812;2023-04-23T13:32:26;51782.97;;;-146.96;53.65